Latest Weather Observations for Swan Island

IDT60801

Issued at 1:31 pm EDT Wednesday 4 March 2015 (issued every 30 minutes, with the page automatically refreshed every 10 minutes)

About weather observations | Map of weather stations | Latest weather observations for TAS | Other Formats
Station Details ID: 092123 Name: SWAN ISLAND Lat: -40.73 Lon: 148.12 Height: 15.0 m
Data from the previous 72 hours. | See also: Recent months at Swan Island
Date/Time
EDT
Temp
°C
App
Temp
°C
Dew
Point
Rel
Hum
%
Delta-T
°C
Wind Press
QNH
hPa
Press
MSL
hPa
Rain
since 9 am
mm
Dir
 
Spd
km/h
Gust
km/h
Spd
kts
Gust
kts
04/01:30pm 18.8 - - - - WNW 46 63 25 34 1006.4 1006.4 0.0
04/01:07pm 19.0 - - - - WNW 44 67 24 36 1006.7 1006.7 0.0
04/01:00pm 18.6 - - - - WNW 44 59 24 32 1006.9 1006.9 0.0
04/12:46pm 17.1 - - - - WNW 44 67 24 36 1007.0 1007.0 0.0
04/12:30pm 18.1 - - - - WNW 44 63 24 34 1007.3 1007.3 0.0
04/12:00pm 18.0 - - - - WNW 43 61 23 33 1007.7 1007.7 0.0
04/11:47am 18.3 - - - - WNW 43 61 23 33 1007.9 1007.9 0.0
04/11:30am 18.2 - - - - NW 46 61 25 33 1008.1 1008.1 0.0
04/11:03am 18.7 - - - - WNW 43 61 23 33 1008.4 1008.4 0.0
04/11:00am 18.3 - - - - WNW 43 57 23 31 1008.5 1008.5 0.0
04/10:43am 18.4 - - - - WNW 44 65 24 35 1008.6 1008.6 0.0
04/10:42am 18.2 - - - - WNW 44 65 24 35 1008.6 1008.6 0.0
04/10:30am 17.9 - - - - WNW 48 65 26 35 1008.6 1008.6 0.0
04/10:02am 16.5 - - - - WNW 41 59 22 32 1009.0 1009.0 0.0
04/10:00am 17.2 - - - - WNW 39 56 21 30 1009.0 1009.0 0.0
04/09:30am 16.6 - - - - W 39 56 21 30 1009.2 1009.2 0.0
04/09:04am 16.3 - - - - WNW 39 57 21 31 1009.1 1009.1 0.0
04/09:00am 15.9 - - - - WNW 43 57 23 31 1009.1 1009.1 0.0
04/08:38am 16.3 - - - - WNW 35 54 19 29 1009.1 1009.1 0.0
04/08:30am 16.6 - - - - WNW 37 54 20 29 1009.1 1009.1 0.0
04/08:23am 16.9 - - - - WNW 35 54 19 29 1009.0 1009.0 0.0
04/08:00am 17.1 - - - - WNW 41 57 22 31 1008.9 1008.9 0.0
04/07:52am 16.9 - - - - WNW 37 57 20 31 1008.9 1008.9 0.0
04/07:30am 16.9 - - - - WNW 41 57 22 31 1008.9 1008.9 0.0
04/07:16am 16.8 - - - - WNW 37 56 20 30 1008.9 1008.9 0.0
04/07:00am 16.3 - - - - WNW 41 52 22 28 1008.8 1008.8 0.0
04/06:30am 16.2 - - - - W 35 56 19 30 1008.9 1008.9 0.0
04/06:00am 16.4 - - - - WNW 33 56 18 30 1009.0 1009.0 0.0
04/05:33am 16.1 - - - - W 35 54 19 29 1009.0 1009.0 0.0
04/05:30am 16.2 - - - - W 37 52 20 28 1009.1 1009.1 0.0
04/05:00am 16.5 - - - - W 32 50 17 27 1009.3 1009.3 0.0
04/04:59am 16.4 - - - - WNW 32 50 17 27 1009.3 1009.3 0.0
04/04:30am 16.6 - - - - WNW 41 54 22 29 1009.3 1009.3 0.0
04/04:00am 16.7 - - - - WNW 37 52 20 28 1009.5 1009.5 0.0
04/03:44am 16.6 - - - - WNW 33 52 18 28 1009.7 1009.7 0.0
04/03:30am 16.6 - - - - WNW 41 54 22 29 1009.7 1009.7 0.0
04/03:13am 16.4 - - - - WNW 39 61 21 33 1009.9 1009.9 0.0
04/03:00am 16.6 - - - - WNW 37 52 20 28 1009.9 1009.9 0.0
04/02:30am 16.6 - - - - WNW 33 56 18 30 1010.3 1010.3 0.0
04/02:12am 16.9 - - - - WNW 32 50 17 27 1010.6 1010.6 0.0
04/02:00am 16.8 - - - - WNW 35 44 19 24 1011.0 1010.9 0.0
04/01:30am 17.0 - - - - WNW 32 46 17 25 1011.4 1011.3 0.0
04/01:00am 16.9 - - - - WNW 32 44 17 24 1011.8 1011.7 0.0
04/12:36am 16.9 - - - - WNW 30 50 16 27 1012.1 1012.0 0.0
04/12:30am 16.8 - - - - WNW 30 43 16 23 1012.2 1012.1 0.0
04/12:04am 16.6 - - - - W 32 50 17 27 1012.5 1012.4 0.0
04/12:00am 16.6 - - - - W 35 50 19 27 1012.5 1012.4 0.0
 
Date/Time
EDT
Temp
°C
App
Temp
°C
Dew
Point
Rel
Hum
%
Delta-T
°C
Wind Press
QNH
hPa
Press
MSL
hPa
Rain
since 9 am
mm
Dir
 
Spd
km/h
Gust
km/h
Spd
kts
Gust
kts
03/11:31pm 16.4 - - - - WNW 33 54 18 29 1012.8 1012.7 0.0
03/11:30pm 16.4 - - - - WNW 33 50 18 27 1012.9 1012.8 0.0
03/11:00pm 16.5 - - - - WNW 37 52 20 28 1012.8 1012.7 0.0
03/10:36pm 16.6 - - - - WNW 33 56 18 30 1012.9 1012.8 0.0
03/10:30pm 16.6 - - - - WNW 35 48 19 26 1013.1 1013.0 0.0
03/10:00pm 16.7 - - - - WNW 35 46 19 25 1013.1 1013.0 0.0
03/09:40pm 16.8 - - - - WNW 33 52 18 28 1013.1 1013.0 0.0
03/09:30pm 16.8 - - - - WNW 35 50 19 27 1013.0 1012.9 0.0
03/09:00pm 16.8 - - - - WNW 35 52 19 28 1012.9 1012.8 0.0
03/08:57pm 16.8 - - - - WNW 33 52 18 28 1012.9 1012.8 0.0
03/08:30pm 16.9 - - - - WNW 35 48 19 26 1012.8 1012.7 0.0
03/08:00pm 16.9 - - - - WNW 35 50 19 27 1012.5 1012.4 0.0
03/07:30pm 16.9 - - - - WNW 35 52 19 28 1012.5 1012.4 0.0
03/07:00pm 17.3 - - - - WNW 33 46 18 25 1012.6 1012.5 0.0
03/06:30pm 17.9 - - - - WNW 32 46 17 25 1012.6 1012.5 0.0
03/06:00pm 18.1 - - - - WNW 32 46 17 25 1012.7 1012.6 0.0
03/05:30pm 18.4 - - - - WNW 30 44 16 24 1012.9 1012.8 0.0
03/05:00pm 18.8 - - - - WNW 30 43 16 23 1013.1 1013.0 0.0
03/04:30pm 19.0 - - - - WNW 32 43 17 23 1013.1 1013.0 0.0
03/04:00pm 19.4 - - - - WNW 28 37 15 20 1013.5 1013.4 0.0
03/03:30pm 19.8 - - - - WNW 28 41 15 22 1013.9 1013.8 0.0
03/03:00pm 20.1 - - - - WNW 26 39 14 21 1014.0 1013.9 0.0
03/02:30pm 20.1 - - - - WNW 28 39 15 21 1014.2 1014.1 0.0
03/02:00pm 20.3 - - - - WNW 26 33 14 18 1014.4 1014.3 0.0
03/01:30pm 20.0 - - - - WNW 24 33 13 18 1014.5 1014.4 0.0
03/01:00pm 20.6 - - - - WNW 22 30 12 16 1014.8 1014.7 0.0
03/12:30pm 19.6 - - - - NW 15 19 8 10 1015.0 1014.9 0.0
03/12:00pm 19.3 - - - - NW 17 20 9 11 1015.3 1015.2 0.0
03/11:30am 18.8 - - - - NW 11 15 6 8 1015.5 1015.4 0.0
03/11:00am 18.6 - - - - NW 11 17 6 9 1015.4 1015.3 0.0
03/10:30am 18.0 - - - - WNW 11 17 6 9 1015.5 1015.4 0.0
03/10:00am 16.9 - - - - W 11 17 6 9 1015.4 1015.3 0.0
03/09:30am 17.2 - - - - WSW 15 22 8 12 1015.4 1015.3 0.0
03/09:00am 16.5 - - - - WSW 9 17 5 9 1015.3 1015.2 0.0
03/08:30am 14.8 - - - - SW 11 17 6 9 1015.1 1015.0 0.0
03/08:00am 13.1 - - - - SW 11 17 6 9 1014.8 1014.7 0.0
03/07:30am 13.2 - - - - SW 9 15 5 8 1014.5 1014.4 0.0
03/07:00am 13.6 - - - - SW 9 13 5 7 1014.0 1013.9 0.0
03/06:30am 13.6 - - - - WSW 11 17 6 9 1013.7 1013.6 0.0
03/06:00am 14.2 - - - - WSW 15 20 8 11 1013.5 1013.4 0.0
03/05:30am 14.5 - - - - WSW 15 22 8 12 1013.3 1013.2 0.0
03/05:00am 14.9 - - - - W 13 17 7 9 1013.2 1013.1 0.0
03/04:30am 14.6 - - - - WSW 11 20 6 11 1013.0 1012.9 0.0
03/04:00am 15.4 - - - - W 19 32 10 17 1012.8 1012.7 0.0
03/03:30am 14.6 - - - - WSW 11 17 6 9 1012.9 1012.8 0.0
03/03:00am 15.4 - - - - WSW 13 20 7 11 1013.0 1012.9 0.0
03/02:30am 15.9 - - - - W 22 32 12 17 1013.7 1013.6 0.0
03/02:00am 16.0 - - - - W 20 30 11 16 1013.7 1013.6 0.0
03/01:30am 16.0 - - - - W 24 33 13 18 1014.1 1014.0 0.0
03/01:00am 16.2 - - - - W 22 28 12 15 1014.5 1014.4 0.0
03/12:30am 16.2 - - - - W 19 28 10 15 1014.5 1014.4 0.0
03/12:00am 16.2 - - - - W 19 26 10 14 1014.6 1014.5 0.0
 
Date/Time
EDT
Temp
°C
App
Temp
°C
Dew
Point
Rel
Hum
%
Delta-T
°C
Wind Press
QNH
hPa
Press
MSL
hPa
Rain
since 9 am
mm
Dir
 
Spd
km/h
Gust
km/h
Spd
kts
Gust
kts
02/11:30pm 16.2 - - - - W 17 24 9 13 1014.9 1014.8 0.0
02/11:00pm 16.5 - - - - WNW 17 24 9 13 1015.2 1015.1 0.0
02/10:30pm 16.5 - - - - WNW 17 24 9 13 1015.2 1015.1 0.0
02/10:00pm 16.5 - - - - WNW 17 24 9 13 1015.1 1015.0 0.0
02/09:30pm 16.4 - - - - WNW 15 20 8 11 1015.1 1015.0 0.0
02/09:00pm 16.5 - - - - WNW 19 24 10 13 1015.2 1015.1 0.0
02/08:30pm 16.6 - - - - NW 17 22 9 12 1014.8 1014.7 0.0
02/08:00pm 16.4 - - - - NW 17 22 9 12 1014.9 1014.8 0.0
02/07:30pm 16.5 - - - - WNW 17 22 9 12 1014.9 1014.8 0.0
02/07:00pm 16.6 - - - - WNW 13 19 7 10 1014.6 1014.5 0.0
02/06:30pm 16.9 - - - - WNW 17 22 9 12 1014.9 1014.8 0.0
02/06:00pm 16.9 - - - - WNW 13 20 7 11 1014.8 1014.7 0.0
02/05:30pm 17.8 - - - - WNW 11 19 6 10 1014.4 1014.3 0.0
02/05:00pm 17.8 - - - - WNW 11 19 6 10 1014.8 1014.7 0.0
02/04:30pm 18.0 - - - - WNW 15 20 8 11 1015.2 1015.1 0.0
02/04:00pm 19.1 - - - - WNW 15 22 8 12 1015.2 1015.1 0.0
02/03:30pm 19.2 - - - - WNW 13 20 7 11 1015.7 1015.6 0.0
02/03:00pm 19.7 - - - - W 19 24 10 13 1016.1 1016.0 0.0
02/02:30pm 19.1 - - - - W 17 24 9 13 1016.2 1016.1 0.0
02/02:00pm 20.3 - - - - WNW 15 22 8 12 1016.7 1016.6 0.0
02/01:30pm 19.9 - - - - WNW 9 17 5 9 1017.0 1016.9 0.0
02/01:00pm 20.0 - - - - WNW 11 19 6 10 1017.4 1017.3 0.0
02/12:30pm 19.4 - - - - NW 13 19 7 10 1018.1 1018.0 0.0
02/12:00pm 18.2 - - - - NNE 7 11 4 6 1018.8 1018.7 0.0
02/11:30am 18.7 - - - - ENE 9 13 5 7 1018.7 1018.6 0.0
02/11:00am 18.5 - - - - E 15 19 8 10 1018.7 1018.6 0.0
02/10:30am 18.2 - - - - ENE 15 19 8 10 1018.8 1018.7 0.0
02/10:00am 17.9 - - - - E 15 19 8 10 1018.9 1018.8 0.0
02/09:30am 17.6 - - - - E 15 20 8 11 1019.0 1018.9 0.0
02/09:00am 16.1 - - - - E 17 20 9 11 1018.8 1018.7 2.6
02/08:30am 16.1 - - - - E 19 22 10 12 1018.6 1018.5 2.6
02/08:00am 15.9 - - - - E 20 26 11 14 1018.5 1018.4 2.6
02/07:30am 15.8 - - - - ENE 22 26 12 14 1018.4 1018.3 2.6
02/07:00am 16.3 - - - - E 20 26 11 14 1017.9 1017.8 2.6
02/06:30am 15.9 - - - - ESE 24 28 13 15 1017.6 1017.5 2.6
02/06:00am 15.9 - - - - ESE 26 30 14 16 1017.5 1017.4 2.6
02/05:30am 16.0 - - - - ESE 22 28 12 15 1017.5 1017.4 2.6
02/05:00am 15.8 - - - - SE 20 24 11 13 1017.7 1017.6 2.6
02/04:30am 15.8 - - - - ESE 20 24 11 13 1017.4 1017.3 2.6
02/04:00am 15.7 - - - - ESE 19 24 10 13 1017.6 1017.5 2.6
02/03:30am 15.8 - - - - ESE 20 26 11 14 1017.1 1017.0 2.6
02/03:00am 16.0 - - - - E 22 28 12 15 1017.0 1016.9 2.6
02/02:30am 15.7 - - - - ESE 26 30 14 16 1016.9 1016.8 2.6
02/02:00am 15.6 - - - - ESE 22 28 12 15 1016.7 1016.6 2.6
02/01:30am 15.7 - - - - E 24 28 13 15 1016.7 1016.6 2.2
02/01:00am 15.7 - - - - ESE 26 32 14 17 1016.6 1016.5 2.2
02/12:30am 16.5 - - - - E 26 32 14 17 1016.4 1016.3 2.2
02/12:00am 16.7 - - - - E 24 28 13 15 1016.6 1016.5 2.2
 
Date/Time
EDT
Temp
°C
App
Temp
°C
Dew
Point
Rel
Hum
%
Delta-T
°C
Wind Press
QNH
hPa
Press
MSL
hPa
Rain
since 9 am
mm
Dir
 
Spd
km/h
Gust
km/h
Spd
kts
Gust
kts
01/11:30pm 16.9 - - - - ESE 24 28 13 15 1016.5 1016.4 2.2
01/11:00pm 17.1 - - - - E 26 30 14 16 1016.3 1016.2 2.2
01/10:30pm 17.0 - - - - E 26 30 14 16 1016.2 1016.1 2.2
01/10:00pm 17.0 - - - - E 24 28 13 15 1015.8 1015.7 2.2
01/09:30pm 17.0 - - - - E 22 28 12 15 1015.4 1015.3 2.2
01/09:00pm 16.9 - - - - E 22 26 12 14 1015.1 1015.0 2.2
01/08:30pm 16.9 - - - - E 22 28 12 15 1014.6 1014.5 2.2
01/08:00pm 17.0 - - - - E 22 26 12 14 1014.0 1013.9 2.2
01/07:30pm 17.1 - - - - E 20 26 11 14 1013.3 1013.2 2.2
01/07:00pm 16.4 - - - - SSE 4 7 2 4 1013.2 1013.1 2.2
01/06:30pm 16.2 - - - - SSE 7 11 4 6 1012.8 1012.7 2.2
01/06:00pm 15.8 - - - - S 19 35 10 19 1012.5 1012.4 1.8
01/05:30pm 19.9 - - - - W 30 44 16 24 1011.3 1011.2 0.0
01/05:00pm 20.2 - - - - W 35 50 19 27 1010.5 1010.5 0.0
01/04:30pm 20.3 - - - - W 37 52 20 28 1010.0 1010.0 0.0
01/04:00pm 20.4 - - - - W 41 52 22 28 1009.7 1009.7 0.0
01/03:30pm 20.9 - - - - W 37 48 20 26 1009.5 1009.5 0.0
01/03:17pm 21.2 - - - - W 30 48 16 26 1009.4 1009.4 0.0
01/03:00pm 20.8 - - - - WNW 28 43 15 23 1009.2 1009.2 0.0
01/02:30pm 20.7 - - - - WNW 30 43 16 23 1009.1 1009.1 0.0
01/02:00pm 21.0 - - - - W 32 44 17 24 1008.7 1008.7 0.0

Other Formats:

Comma delimited format used in spreadsheet applications
http://www.bom.gov.au/fwo/IDT60801/IDT60801.95985.axf

JavaScript Object Notation format (JSON) in row-major order
http://www.bom.gov.au/fwo/IDT60801/IDT60801.95985.json